sensor_id;sensor_type;location;lat;lon;timestamp;P1;durP1;ratioP1;P2;durP2;ratioP2
11935;SDS011;6027;48.576;9.180;2023-03-30T00:00:04;10.35;;;2.10;;
11935;SDS011;6027;48.576;9.180;2023-03-30T00:02:41;8.80;;;2.53;;
11935;SDS011;6027;48.576;9.180;2023-03-30T00:05:08;9.80;;;2.55;;
11935;SDS011;6027;48.576;9.180;2023-03-30T00:07:34;6.93;;;2.42;;
11935;SDS011;6027;48.576;9.180;2023-03-30T00:10:02;7.57;;;2.38;;
11935;SDS011;6027;48.576;9.180;2023-03-30T00:12:28;8.85;;;2.10;;
11935;SDS011;6027;48.576;9.180;2023-03-30T00:14:55;9.00;;;2.30;;
11935;SDS011;6027;48.576;9.180;2023-03-30T00:17:20;10.77;;;2.63;;
11935;SDS011;6027;48.576;9.180;2023-03-30T00:19:46;9.20;;;2.65;;
11935;SDS011;6027;48.576;9.180;2023-03-30T00:22:11;7.70;;;2.20;;
11935;SDS011;6027;48.576;9.180;2023-03-30T00:24:37;8.98;;;2.35;;
11935;SDS011;6027;48.576;9.180;2023-03-30T00:27:02;8.45;;;2.60;;
11935;SDS011;6027;48.576;9.180;2023-03-30T00:29:28;8.52;;;2.45;;
11935;SDS011;6027;48.576;9.180;2023-03-30T00:31:54;11.73;;;2.55;;
11935;SDS011;6027;48.576;9.180;2023-03-30T00:34:20;7.45;;;2.22;;
11935;SDS011;6027;48.576;9.180;2023-03-30T00:36:45;7.25;;;2.00;;
11935;SDS011;6027;48.576;9.180;2023-03-30T00:39:13;10.73;;;2.70;;
11935;SDS011;6027;48.576;9.180;2023-03-30T00:41:43;8.48;;;2.47;;
11935;SDS011;6027;48.576;9.180;2023-03-30T00:47:12;6.28;;;2.28;;
11935;SDS011;6027;48.576;9.180;2023-03-30T00:49:38;8.00;;;2.30;;
11935;SDS011;6027;48.576;9.180;2023-03-30T00:52:06;13.13;;;2.45;;
11935;SDS011;6027;48.576;9.180;2023-03-30T00:54:33;7.15;;;2.33;;
11935;SDS011;6027;48.576;9.180;2023-03-30T00:56:58;10.38;;;2.22;;
11935;SDS011;6027;48.576;9.180;2023-03-30T00:59:24;8.57;;;2.63;;
11935;SDS011;6027;48.576;9.180;2023-03-30T01:01:50;9.98;;;2.80;;
11935;SDS011;6027;48.576;9.180;2023-03-30T01:04:15;7.75;;;2.45;;
11935;SDS011;6027;48.576;9.180;2023-03-30T01:06:41;17.15;;;2.78;;
11935;SDS011;6027;48.576;9.180;2023-03-30T01:09:11;13.65;;;2.60;;
11935;SDS011;6027;48.576;9.180;2023-03-30T01:11:38;9.00;;;2.25;;
11935;SDS011;6027;48.576;9.180;2023-03-30T01:14:07;12.23;;;2.90;;
11935;SDS011;6027;48.576;9.180;2023-03-30T01:41:05;7.28;;;2.47;;
11935;SDS011;6027;48.576;9.180;2023-03-30T01:43:51;12.38;;;3.08;;
11935;SDS011;6027;48.576;9.180;2023-03-30T01:47:08;13.98;;;2.50;;
11935;SDS011;6027;48.576;9.180;2023-03-30T01:49:26;12.32;;;2.75;;
11935;SDS011;6027;48.576;9.180;2023-03-30T01:51:59;8.13;;;2.85;;
11935;SDS011;6027;48.576;9.180;2023-03-30T01:54:41;7.88;;;2.25;;
11935;SDS011;6027;48.576;9.180;2023-03-30T01:59:52;10.25;;;3.17;;
11935;SDS011;6027;48.576;9.180;2023-03-30T02:02:21;12.48;;;3.10;;
11935;SDS011;6027;48.576;9.180;2023-03-30T02:04:50;10.90;;;2.95;;
11935;SDS011;6027;48.576;9.180;2023-03-30T02:07:21;12.07;;;2.83;;
11935;SDS011;6027;48.576;9.180;2023-03-30T02:09:51;7.55;;;2.85;;
11935;SDS011;6027;48.576;9.180;2023-03-30T02:12:19;10.10;;;2.65;;
11935;SDS011;6027;48.576;9.180;2023-03-30T02:14:46;9.30;;;2.85;;
11935;SDS011;6027;48.576;9.180;2023-03-30T02:17:17;11.68;;;2.63;;
11935;SDS011;6027;48.576;9.180;2023-03-30T02:19:46;10.00;;;2.47;;
11935;SDS011;6027;48.576;9.180;2023-03-30T02:22:13;12.02;;;2.92;;
11935;SDS011;6027;48.576;9.180;2023-03-30T02:24:40;11.65;;;2.60;;
11935;SDS011;6027;48.576;9.180;2023-03-30T02:27:08;13.93;;;2.60;;
11935;SDS011;6027;48.576;9.180;2023-03-30T02:29:34;10.40;;;2.53;;
11935;SDS011;6027;48.576;9.180;2023-03-30T02:32:03;10.68;;;2.65;;
11935;SDS011;6027;48.576;9.180;2023-03-30T02:34:40;6.72;;;2.50;;
11935;SDS011;6027;48.576;9.180;2023-03-30T02:37:26;10.13;;;2.63;;
11935;SDS011;6027;48.576;9.180;2023-03-30T02:48:11;7.40;;;2.50;;
11935;SDS011;6027;48.576;9.180;2023-03-30T02:50:53;7.25;;;2.53;;
11935;SDS011;6027;48.576;9.180;2023-03-30T02:53:42;11.00;;;2.55;;
11935;SDS011;6027;48.576;9.180;2023-03-30T02:58:44;7.55;;;3.28;;
11935;SDS011;6027;48.576;9.180;2023-03-30T03:03:44;11.50;;;2.92;;
11935;SDS011;6027;48.576;9.180;2023-03-30T03:06:12;10.43;;;2.63;;
11935;SDS011;6027;48.576;9.180;2023-03-30T03:08:39;10.77;;;2.67;;
11935;SDS011;6027;48.576;9.180;2023-03-30T03:11:07;12.68;;;2.88;;
11935;SDS011;6027;48.576;9.180;2023-03-30T03:13:34;8.30;;;3.28;;
11935;SDS011;6027;48.576;9.180;2023-03-30T03:16:03;11.10;;;3.75;;
11935;SDS011;6027;48.576;9.180;2023-03-30T03:18:32;11.48;;;3.17;;
11935;SDS011;6027;48.576;9.180;2023-03-30T03:20:59;9.98;;;3.00;;
11935;SDS011;6027;48.576;9.180;2023-03-30T03:23:25;11.07;;;3.22;;
11935;SDS011;6027;48.576;9.180;2023-03-30T03:25:51;11.52;;;3.58;;
11935;SDS011;6027;48.576;9.180;2023-03-30T03:28:16;13.98;;;3.17;;
11935;SDS011;6027;48.576;9.180;2023-03-30T03:30:42;10.25;;;3.13;;
11935;SDS011;6027;48.576;9.180;2023-03-30T03:33:09;11.25;;;3.35;;
11935;SDS011;6027;48.576;9.180;2023-03-30T03:35:35;13.65;;;3.05;;
11935;SDS011;6027;48.576;9.180;2023-03-30T03:38:03;9.98;;;2.97;;
11935;SDS011;6027;48.576;9.180;2023-03-30T03:40:30;10.32;;;3.15;;
11935;SDS011;6027;48.576;9.180;2023-03-30T03:42:55;10.18;;;3.22;;
11935;SDS011;6027;48.576;9.180;2023-03-30T03:45:21;10.85;;;3.00;;
11935;SDS011;6027;48.576;9.180;2023-03-30T03:47:49;13.13;;;3.40;;
11935;SDS011;6027;48.576;9.180;2023-03-30T03:50:15;10.98;;;3.25;;
11935;SDS011;6027;48.576;9.180;2023-03-30T03:52:40;12.57;;;2.70;;
11935;SDS011;6027;48.576;9.180;2023-03-30T03:55:06;10.30;;;3.65;;
11935;SDS011;6027;48.576;9.180;2023-03-30T03:57:32;11.82;;;3.30;;
11935;SDS011;6027;48.576;9.180;2023-03-30T03:59:57;11.60;;;4.35;;
11935;SDS011;6027;48.576;9.180;2023-03-30T04:02:24;16.20;;;3.58;;
11935;SDS011;6027;48.576;9.180;2023-03-30T04:04:50;10.27;;;3.03;;
11935;SDS011;6027;48.576;9.180;2023-03-30T04:07:17;11.35;;;2.92;;
11935;SDS011;6027;48.576;9.180;2023-03-30T04:10:02;12.15;;;3.67;;
11935;SDS011;6027;48.576;9.180;2023-03-30T04:12:29;14.45;;;3.28;;
11935;SDS011;6027;48.576;9.180;2023-03-30T04:14:56;14.55;;;4.25;;
11935;SDS011;6027;48.576;9.180;2023-03-30T04:17:21;12.35;;;3.05;;
11935;SDS011;6027;48.576;9.180;2023-03-30T04:19:51;13.32;;;3.10;;
11935;SDS011;6027;48.576;9.180;2023-03-30T04:22:18;11.30;;;3.90;;
11935;SDS011;6027;48.576;9.180;2023-03-30T04:24:44;17.02;;;4.43;;
11935;SDS011;6027;48.576;9.180;2023-03-30T04:27:10;11.93;;;4.90;;
11935;SDS011;6027;48.576;9.180;2023-03-30T04:29:41;14.68;;;4.97;;
11935;SDS011;6027;48.576;9.180;2023-03-30T04:32:11;12.23;;;5.25;;
11935;SDS011;6027;48.576;9.180;2023-03-30T04:34:37;9.25;;;3.70;;
11935;SDS011;6027;48.576;9.180;2023-03-30T04:37:09;13.05;;;3.70;;
11935;SDS011;6027;48.576;9.180;2023-03-30T04:39:35;11.57;;;3.08;;
11935;SDS011;6027;48.576;9.180;2023-03-30T04:42:01;19.17;;;4.32;;
11935;SDS011;6027;48.576;9.180;2023-03-30T04:44:29;23.83;;;5.60;;
11935;SDS011;6027;48.576;9.180;2023-03-30T04:46:55;15.73;;;4.20;;
11935;SDS011;6027;48.576;9.180;2023-03-30T04:49:21;18.20;;;4.93;;
11935;SDS011;6027;48.576;9.180;2023-03-30T04:51:47;17.48;;;4.55;;
11935;SDS011;6027;48.576;9.180;2023-03-30T04:54:12;17.65;;;3.83;;
11935;SDS011;6027;48.576;9.180;2023-03-30T04:56:38;18.38;;;4.90;;
11935;SDS011;6027;48.576;9.180;2023-03-30T04:59:04;20.30;;;5.15;;
11935;SDS011;6027;48.576;9.180;2023-03-30T05:01:29;17.40;;;4.00;;
11935;SDS011;6027;48.576;9.180;2023-03-30T05:04:05;19.13;;;4.35;;
11935;SDS011;6027;48.576;9.180;2023-03-30T05:06:31;14.35;;;3.92;;
11935;SDS011;6027;48.576;9.180;2023-03-30T05:08:57;16.35;;;3.60;;
11935;SDS011;6027;48.576;9.180;2023-03-30T05:11:22;10.48;;;3.22;;
11935;SDS011;6027;48.576;9.180;2023-03-30T05:13:51;11.55;;;3.30;;
11935;SDS011;6027;48.576;9.180;2023-03-30T05:16:18;11.10;;;2.88;;
11935;SDS011;6027;48.576;9.180;2023-03-30T05:18:44;10.85;;;3.42;;
11935;SDS011;6027;48.576;9.180;2023-03-30T05:21:10;11.43;;;2.85;;
11935;SDS011;6027;48.576;9.180;2023-03-30T05:23:35;11.05;;;3.05;;
11935;SDS011;6027;48.576;9.180;2023-03-30T05:26:03;17.30;;;3.42;;
11935;SDS011;6027;48.576;9.180;2023-03-30T05:28:31;12.35;;;3.13;;
11935;SDS011;6027;48.576;9.180;2023-03-30T05:30:57;11.27;;;2.50;;
11935;SDS011;6027;48.576;9.180;2023-03-30T05:33:23;6.50;;;2.60;;
11935;SDS011;6027;48.576;9.180;2023-03-30T05:35:49;10.43;;;3.30;;
11935;SDS011;6027;48.576;9.180;2023-03-30T05:38:15;8.15;;;2.53;;
11935;SDS011;6027;48.576;9.180;2023-03-30T05:40:41;10.85;;;3.03;;
11935;SDS011;6027;48.576;9.180;2023-03-30T05:43:09;11.27;;;3.63;;
11935;SDS011;6027;48.576;9.180;2023-03-30T05:45:34;12.02;;;3.33;;
11935;SDS011;6027;48.576;9.180;2023-03-30T05:48:00;13.15;;;3.63;;
11935;SDS011;6027;48.576;9.180;2023-03-30T05:50:25;16.20;;;3.65;;
11935;SDS011;6027;48.576;9.180;2023-03-30T05:52:51;12.82;;;3.45;;
11935;SDS011;6027;48.576;9.180;2023-03-30T05:55:16;12.70;;;3.53;;
11935;SDS011;6027;48.576;9.180;2023-03-30T05:57:42;15.80;;;3.83;;
11935;SDS011;6027;48.576;9.180;2023-03-30T06:00:08;16.65;;;4.18;;
11935;SDS011;6027;48.576;9.180;2023-03-30T06:02:35;17.05;;;3.70;;
11935;SDS011;6027;48.576;9.180;2023-03-30T06:05:00;14.77;;;4.38;;
11935;SDS011;6027;48.576;9.180;2023-03-30T06:07:26;13.77;;;4.35;;
11935;SDS011;6027;48.576;9.180;2023-03-30T06:09:52;17.48;;;5.32;;
11935;SDS011;6027;48.576;9.180;2023-03-30T06:12:18;13.85;;;4.97;;
11935;SDS011;6027;48.576;9.180;2023-03-30T06:14:44;10.88;;;4.40;;
11935;SDS011;6027;48.576;9.180;2023-03-30T06:17:09;11.40;;;3.47;;
11935;SDS011;6027;48.576;9.180;2023-03-30T06:19:36;9.60;;;3.88;;
11935;SDS011;6027;48.576;9.180;2023-03-30T06:22:03;14.38;;;3.30;;
11935;SDS011;6027;48.576;9.180;2023-03-30T06:24:29;10.85;;;3.33;;
11935;SDS011;6027;48.576;9.180;2023-03-30T06:26:55;9.02;;;3.38;;
11935;SDS011;6027;48.576;9.180;2023-03-30T06:29:20;12.43;;;4.00;;
11935;SDS011;6027;48.576;9.180;2023-03-30T06:31:47;10.15;;;3.25;;
11935;SDS011;6027;48.576;9.180;2023-03-30T06:34:12;8.73;;;3.08;;
11935;SDS011;6027;48.576;9.180;2023-03-30T06:36:38;14.10;;;3.58;;
11935;SDS011;6027;48.576;9.180;2023-03-30T06:39:03;15.60;;;3.38;;
11935;SDS011;6027;48.576;9.180;2023-03-30T06:41:29;14.88;;;3.30;;
11935;SDS011;6027;48.576;9.180;2023-03-30T06:43:55;9.57;;;2.97;;
11935;SDS011;6027;48.576;9.180;2023-03-30T06:46:21;11.10;;;3.38;;
11935;SDS011;6027;48.576;9.180;2023-03-30T06:48:46;15.13;;;3.33;;
11935;SDS011;6027;48.576;9.180;2023-03-30T06:51:12;16.08;;;4.20;;
11935;SDS011;6027;48.576;9.180;2023-03-30T06:53:38;12.32;;;3.13;;
11935;SDS011;6027;48.576;9.180;2023-03-30T06:56:04;13.88;;;3.83;;
11935;SDS011;6027;48.576;9.180;2023-03-30T06:58:32;15.52;;;4.40;;
11935;SDS011;6027;48.576;9.180;2023-03-30T07:00:58;12.38;;;3.42;;
11935;SDS011;6027;48.576;9.180;2023-03-30T07:03:24;11.77;;;3.20;;
11935;SDS011;6027;48.576;9.180;2023-03-30T07:05:51;8.90;;;2.78;;
11935;SDS011;6027;48.576;9.180;2023-03-30T07:08:17;11.40;;;3.40;;
11935;SDS011;6027;48.576;9.180;2023-03-30T07:10:44;11.57;;;3.08;;
11935;SDS011;6027;48.576;9.180;2023-03-30T07:13:11;9.30;;;3.70;;
11935;SDS011;6027;48.576;9.180;2023-03-30T07:15:36;15.43;;;3.42;;
11935;SDS011;6027;48.576;9.180;2023-03-30T07:18:02;10.43;;;2.60;;
11935;SDS011;6027;48.576;9.180;2023-03-30T07:20:28;9.48;;;3.00;;
11935;SDS011;6027;48.576;9.180;2023-03-30T07:22:54;9.35;;;2.60;;
11935;SDS011;6027;48.576;9.180;2023-03-30T07:25:19;8.63;;;2.75;;
11935;SDS011;6027;48.576;9.180;2023-03-30T07:27:44;12.05;;;3.00;;
11935;SDS011;6027;48.576;9.180;2023-03-30T07:30:12;10.45;;;2.75;;
11935;SDS011;6027;48.576;9.180;2023-03-30T07:32:38;10.90;;;3.08;;
11935;SDS011;6027;48.576;9.180;2023-03-30T07:35:04;10.55;;;3.00;;
11935;SDS011;6027;48.576;9.180;2023-03-30T07:37:30;10.80;;;3.30;;
11935;SDS011;6027;48.576;9.180;2023-03-30T07:39:56;10.80;;;2.80;;
11935;SDS011;6027;48.576;9.180;2023-03-30T07:42:22;15.23;;;3.15;;
11935;SDS011;6027;48.576;9.180;2023-03-30T07:44:47;11.30;;;2.95;;
11935;SDS011;6027;48.576;9.180;2023-03-30T07:47:13;8.82;;;3.20;;
11935;SDS011;6027;48.576;9.180;2023-03-30T07:49:39;14.18;;;2.92;;
11935;SDS011;6027;48.576;9.180;2023-03-30T07:52:05;12.93;;;3.35;;
11935;SDS011;6027;48.576;9.180;2023-03-30T07:56:59;9.07;;;2.53;;
11935;SDS011;6027;48.576;9.180;2023-03-30T07:59:25;13.85;;;3.10;;
11935;SDS011;6027;48.576;9.180;2023-03-30T08:01:51;12.13;;;3.63;;
11935;SDS011;6027;48.576;9.180;2023-03-30T08:04:18;10.07;;;2.88;;
11935;SDS011;6027;48.576;9.180;2023-03-30T08:06:44;10.85;;;3.00;;
11935;SDS011;6027;48.576;9.180;2023-03-30T08:09:10;11.65;;;3.00;;
11935;SDS011;6027;48.576;9.180;2023-03-30T08:11:36;8.80;;;2.60;;
11935;SDS011;6027;48.576;9.180;2023-03-30T08:14:02;11.60;;;2.92;;
11935;SDS011;6027;48.576;9.180;2023-03-30T08:16:28;7.28;;;2.72;;
11935;SDS011;6027;48.576;9.180;2023-03-30T08:18:54;10.43;;;3.40;;
11935;SDS011;6027;48.576;9.180;2023-03-30T08:21:23;14.32;;;3.42;;
11935;SDS011;6027;48.576;9.180;2023-03-30T08:23:53;14.65;;;3.50;;
11935;SDS011;6027;48.576;9.180;2023-03-30T08:26:26;14.25;;;4.03;;
11935;SDS011;6027;48.576;9.180;2023-03-30T08:28:55;19.90;;;4.30;;
11935;SDS011;6027;48.576;9.180;2023-03-30T08:31:21;12.32;;;3.65;;
11935;SDS011;6027;48.576;9.180;2023-03-30T08:33:47;13.20;;;4.40;;
11935;SDS011;6027;48.576;9.180;2023-03-30T08:36:13;13.32;;;5.40;;
11935;SDS011;6027;48.576;9.180;2023-03-30T08:38:39;13.10;;;4.05;;
11935;SDS011;6027;48.576;9.180;2023-03-30T08:43:50;14.00;;;3.72;;
11935;SDS011;6027;48.576;9.180;2023-03-30T08:46:19;11.68;;;3.47;;
11935;SDS011;6027;48.576;9.180;2023-03-30T08:48:45;9.73;;;3.00;;
11935;SDS011;6027;48.576;9.180;2023-03-30T08:53:54;9.93;;;3.28;;
11935;SDS011;6027;48.576;9.180;2023-03-30T08:56:29;9.50;;;3.47;;
11935;SDS011;6027;48.576;9.180;2023-03-30T09:01:57;6.35;;;2.50;;
11935;SDS011;6027;48.576;9.180;2023-03-30T09:07:18;6.22;;;2.50;;
11935;SDS011;6027;48.576;9.180;2023-03-30T09:09:46;6.57;;;2.28;;
11935;SDS011;6027;48.576;9.180;2023-03-30T09:15:38;3.75;;;1.83;;
11935;SDS011;6027;48.576;9.180;2023-03-30T09:20:47;6.40;;;2.40;;
11935;SDS011;6027;48.576;9.180;2023-03-30T09:23:16;8.20;;;2.40;;
11935;SDS011;6027;48.576;9.180;2023-03-30T09:34:02;8.50;;;2.00;;
11935;SDS011;6027;48.576;9.180;2023-03-30T09:36:43;4.35;;;2.08;;
11935;SDS011;6027;48.576;9.180;2023-03-30T09:39:17;7.82;;;2.83;;
11935;SDS011;6027;48.576;9.180;2023-03-30T09:44:22;7.10;;;2.63;;
11935;SDS011;6027;48.576;9.180;2023-03-30T09:46:56;7.03;;;3.20;;
11935;SDS011;6027;48.576;9.180;2023-03-30T09:49:25;7.18;;;2.78;;
11935;SDS011;6027;48.576;9.180;2023-03-30T09:54:33;4.28;;;2.60;;
11935;SDS011;6027;48.576;9.180;2023-03-30T09:57:04;5.00;;;2.30;;
11935;SDS011;6027;48.576;9.180;2023-03-30T10:02:18;6.15;;;2.40;;
11935;SDS011;6027;48.576;9.180;2023-03-30T10:07:23;6.85;;;2.78;;
11935;SDS011;6027;48.576;9.180;2023-03-30T10:09:51;6.10;;;2.63;;
11935;SDS011;6027;48.576;9.180;2023-03-30T10:12:17;6.93;;;2.60;;
11935;SDS011;6027;48.576;9.180;2023-03-30T10:14:43;5.72;;;2.65;;
11935;SDS011;6027;48.576;9.180;2023-03-30T10:17:19;7.05;;;2.95;;
11935;SDS011;6027;48.576;9.180;2023-03-30T10:19:50;5.40;;;2.25;;
11935;SDS011;6027;48.576;9.180;2023-03-30T10:22:37;5.35;;;2.05;;
11935;SDS011;6027;48.576;9.180;2023-03-30T10:25:20;7.47;;;2.60;;
11935;SDS011;6027;48.576;9.180;2023-03-30T10:27:51;7.65;;;2.55;;
11935;SDS011;6027;48.576;9.180;2023-03-30T10:30:20;7.47;;;2.72;;
11935;SDS011;6027;48.576;9.180;2023-03-30T10:32:48;8.25;;;2.90;;
11935;SDS011;6027;48.576;9.180;2023-03-30T10:35:22;6.93;;;2.70;;
11935;SDS011;6027;48.576;9.180;2023-03-30T10:37:51;8.75;;;2.75;;
11935;SDS011;6027;48.576;9.180;2023-03-30T10:42:59;9.38;;;3.13;;
11935;SDS011;6027;48.576;9.180;2023-03-30T10:45:33;4.75;;;2.40;;
11935;SDS011;6027;48.576;9.180;2023-03-30T11:04:42;6.22;;;2.97;;
11935;SDS011;6027;48.576;9.180;2023-03-30T11:07:14;7.82;;;3.25;;
11935;SDS011;6027;48.576;9.180;2023-03-30T11:09:45;5.45;;;3.53;;
11935;SDS011;6027;48.576;9.180;2023-03-30T11:12:17;5.90;;;2.80;;
11935;SDS011;6027;48.576;9.180;2023-03-30T11:14:59;8.10;;;3.42;;
11935;SDS011;6027;48.576;9.180;2023-03-30T11:20:25;5.63;;;3.67;;
11935;SDS011;6027;48.576;9.180;2023-03-30T11:23:01;6.07;;;3.97;;
11935;SDS011;6027;48.576;9.180;2023-03-30T11:28:32;6.88;;;3.08;;
11935;SDS011;6027;48.576;9.180;2023-03-30T11:33:44;6.72;;;3.38;;
11935;SDS011;6027;48.576;9.180;2023-03-30T11:36:17;7.15;;;3.10;;
11935;SDS011;6027;48.576;9.180;2023-03-30T11:41:39;8.57;;;3.60;;
11935;SDS011;6027;48.576;9.180;2023-03-30T11:44:09;7.72;;;3.25;;
11935;SDS011;6027;48.576;9.180;2023-03-30T11:49:49;7.95;;;3.40;;
11935;SDS011;6027;48.576;9.180;2023-03-30T11:52:46;8.02;;;3.65;;
11935;SDS011;6027;48.576;9.180;2023-03-30T12:01:08;10.45;;;4.03;;
11935;SDS011;6027;48.576;9.180;2023-03-30T12:06:38;26.08;;;10.15;;
11935;SDS011;6027;48.576;9.180;2023-03-30T12:25:48;8.43;;;3.05;;
11935;SDS011;6027;48.576;9.180;2023-03-30T12:28:39;4.40;;;2.80;;
11935;SDS011;6027;48.576;9.180;2023-03-30T12:31:17;4.68;;;2.47;;
11935;SDS011;6027;48.576;9.180;2023-03-30T12:38:58;4.30;;;2.65;;
11935;SDS011;6027;48.576;9.180;2023-03-30T12:41:44;3.50;;;2.10;;
11935;SDS011;6027;48.576;9.180;2023-03-30T12:47:13;6.25;;;2.60;;
11935;SDS011;6027;48.576;9.180;2023-03-30T13:04:09;7.15;;;2.97;;
11935;SDS011;6027;48.576;9.180;2023-03-30T13:07:01;5.82;;;2.83;;
11935;SDS011;6027;48.576;9.180;2023-03-30T13:09:32;5.47;;;1.98;;
11935;SDS011;6027;48.576;9.180;2023-03-30T13:19:20;6.53;;;1.92;;
11935;SDS011;6027;48.576;9.180;2023-03-30T13:21:46;5.03;;;2.10;;
11935;SDS011;6027;48.576;9.180;2023-03-30T13:29:38;5.10;;;2.25;;
11935;SDS011;6027;48.576;9.180;2023-03-30T13:32:16;6.80;;;2.00;;
11935;SDS011;6027;48.576;9.180;2023-03-30T13:34:50;4.43;;;1.83;;
11935;SDS011;6027;48.576;9.180;2023-03-30T13:40:29;5.85;;;2.30;;
11935;SDS011;6027;48.576;9.180;2023-03-30T13:43:11;5.78;;;1.95;;
11935;SDS011;6027;48.576;9.180;2023-03-30T13:51:13;5.72;;;2.15;;
11935;SDS011;6027;48.576;9.180;2023-03-30T13:53:47;3.75;;;1.65;;
11935;SDS011;6027;48.576;9.180;2023-03-30T13:56:17;7.13;;;1.60;;
11935;SDS011;6027;48.576;9.180;2023-03-30T13:58:46;2.15;;;1.38;;
11935;SDS011;6027;48.576;9.180;2023-03-30T14:01:20;4.30;;;1.30;;
11935;SDS011;6027;48.576;9.180;2023-03-30T14:03:48;4.30;;;1.67;;
11935;SDS011;6027;48.576;9.180;2023-03-30T14:08:48;4.40;;;1.90;;
11935;SDS011;6027;48.576;9.180;2023-03-30T14:11:35;2.38;;;1.30;;
11935;SDS011;6027;48.576;9.180;2023-03-30T14:14:04;4.45;;;1.63;;
11935;SDS011;6027;48.576;9.180;2023-03-30T14:16:32;4.50;;;1.58;;
11935;SDS011;6027;48.576;9.180;2023-03-30T14:19:08;3.67;;;1.70;;
11935;SDS011;6027;48.576;9.180;2023-03-30T14:21:42;4.80;;;1.77;;
11935;SDS011;6027;48.576;9.180;2023-03-30T14:24:15;5.53;;;1.48;;
11935;SDS011;6027;48.576;9.180;2023-03-30T14:26:45;4.43;;;1.40;;
11935;SDS011;6027;48.576;9.180;2023-03-30T14:29:19;6.32;;;1.88;;
11935;SDS011;6027;48.576;9.180;2023-03-30T14:31:45;4.15;;;1.50;;
11935;SDS011;6027;48.576;9.180;2023-03-30T14:34:27;6.10;;;1.60;;
11935;SDS011;6027;48.576;9.180;2023-03-30T14:36:57;4.90;;;1.83;;
11935;SDS011;6027;48.576;9.180;2023-03-30T14:39:25;3.95;;;1.65;;
11935;SDS011;6027;48.576;9.180;2023-03-30T14:41:51;5.78;;;2.08;;
11935;SDS011;6027;48.576;9.180;2023-03-30T14:44:18;4.00;;;1.65;;
11935;SDS011;6027;48.576;9.180;2023-03-30T14:46:48;3.88;;;1.90;;
11935;SDS011;6027;48.576;9.180;2023-03-30T14:49:16;3.70;;;1.50;;
11935;SDS011;6027;48.576;9.180;2023-03-30T14:52:02;3.35;;;1.60;;
11935;SDS011;6027;48.576;9.180;2023-03-30T14:54:33;5.00;;;1.67;;
11935;SDS011;6027;48.576;9.180;2023-03-30T14:57:00;3.45;;;1.50;;
11935;SDS011;6027;48.576;9.180;2023-03-30T14:59:32;3.65;;;1.60;;
11935;SDS011;6027;48.576;9.180;2023-03-30T15:02:02;3.28;;;1.83;;
11935;SDS011;6027;48.576;9.180;2023-03-30T15:06:56;3.03;;;1.40;;
11935;SDS011;6027;48.576;9.180;2023-03-30T15:09:22;2.67;;;1.50;;
11935;SDS011;6027;48.576;9.180;2023-03-30T15:11:56;3.25;;;1.35;;
11935;SDS011;6027;48.576;9.180;2023-03-30T15:14:25;9.27;;;6.15;;
11935;SDS011;6027;48.576;9.180;2023-03-30T15:16:53;3.78;;;1.40;;
11935;SDS011;6027;48.576;9.180;2023-03-30T15:19:24;2.25;;;1.20;;
11935;SDS011;6027;48.576;9.180;2023-03-30T15:21:54;3.45;;;1.15;;
11935;SDS011;6027;48.576;9.180;2023-03-30T15:24:23;4.55;;;1.48;;
11935;SDS011;6027;48.576;9.180;2023-03-30T15:26:55;3.83;;;1.95;;
11935;SDS011;6027;48.576;9.180;2023-03-30T15:29:22;4.47;;;1.50;;
11935;SDS011;6027;48.576;9.180;2023-03-30T15:34:35;1.90;;;1.25;;
11935;SDS011;6027;48.576;9.180;2023-03-30T15:37:01;2.00;;;1.40;;
11935;SDS011;6027;48.576;9.180;2023-03-30T15:39:28;4.38;;;1.20;;
11935;SDS011;6027;48.576;9.180;2023-03-30T15:42:04;2.95;;;1.23;;
11935;SDS011;6027;48.576;9.180;2023-03-30T15:44:34;4.78;;;1.30;;
11935;SDS011;6027;48.576;9.180;2023-03-30T15:47:02;2.03;;;1.10;;
11935;SDS011;6027;48.576;9.180;2023-03-30T15:49:29;2.85;;;1.10;;
11935;SDS011;6027;48.576;9.180;2023-03-30T15:52:41;2.35;;;1.50;;
11935;SDS011;6027;48.576;9.180;2023-03-30T15:55:06;4.30;;;1.15;;
11935;SDS011;6027;48.576;9.180;2023-03-30T15:57:40;2.35;;;1.27;;
11935;SDS011;6027;48.576;9.180;2023-03-30T16:00:12;2.53;;;1.20;;
11935;SDS011;6027;48.576;9.180;2023-03-30T16:02:45;2.33;;;1.00;;
11935;SDS011;6027;48.576;9.180;2023-03-30T16:05:20;2.53;;;1.10;;
11935;SDS011;6027;48.576;9.180;2023-03-30T16:07:47;3.90;;;1.08;;
11935;SDS011;6027;48.576;9.180;2023-03-30T16:10:13;2.35;;;1.08;;
11935;SDS011;6027;48.576;9.180;2023-03-30T16:12:48;4.28;;;1.15;;
11935;SDS011;6027;48.576;9.180;2023-03-30T16:15:16;3.80;;;1.15;;
11935;SDS011;6027;48.576;9.180;2023-03-30T16:17:44;3.67;;;1.10;;
11935;SDS011;6027;48.576;9.180;2023-03-30T16:20:18;4.28;;;1.00;;
11935;SDS011;6027;48.576;9.180;2023-03-30T16:22:46;2.72;;;0.90;;
11935;SDS011;6027;48.576;9.180;2023-03-30T16:25:16;1.30;;;0.75;;
11935;SDS011;6027;48.576;9.180;2023-03-30T16:27:46;3.78;;;1.20;;
11935;SDS011;6027;48.576;9.180;2023-03-30T16:32:42;3.15;;;1.08;;
11935;SDS011;6027;48.576;9.180;2023-03-30T16:35:07;2.17;;;1.15;;
11935;SDS011;6027;48.576;9.180;2023-03-30T16:37:33;2.00;;;1.30;;
11935;SDS011;6027;48.576;9.180;2023-03-30T16:39:59;2.25;;;1.30;;
11935;SDS011;6027;48.576;9.180;2023-03-30T16:42:25;2.78;;;1.27;;
11935;SDS011;6027;48.576;9.180;2023-03-30T16:44:51;1.88;;;0.98;;
11935;SDS011;6027;48.576;9.180;2023-03-30T16:47:17;2.90;;;1.17;;
11935;SDS011;6027;48.576;9.180;2023-03-30T16:49:45;4.15;;;0.90;;
11935;SDS011;6027;48.576;9.180;2023-03-30T16:52:11;3.20;;;1.23;;
11935;SDS011;6027;48.576;9.180;2023-03-30T16:54:36;1.77;;;1.15;;
11935;SDS011;6027;48.576;9.180;2023-03-30T16:57:02;3.20;;;1.25;;
11935;SDS011;6027;48.576;9.180;2023-03-30T16:59:28;3.97;;;1.20;;
11935;SDS011;6027;48.576;9.180;2023-03-30T17:01:55;4.18;;;1.23;;
11935;SDS011;6027;48.576;9.180;2023-03-30T17:04:21;1.63;;;1.10;;
11935;SDS011;6027;48.576;9.180;2023-03-30T17:06:46;3.15;;;1.30;;
11935;SDS011;6027;48.576;9.180;2023-03-30T17:09:13;4.72;;;1.40;;
11935;SDS011;6027;48.576;9.180;2023-03-30T17:11:45;1.95;;;1.25;;
11935;SDS011;6027;48.576;9.180;2023-03-30T17:14:12;2.58;;;1.35;;
11935;SDS011;6027;48.576;9.180;2023-03-30T17:16:38;1.83;;;1.00;;
11935;SDS011;6027;48.576;9.180;2023-03-30T17:19:04;2.00;;;1.25;;
11935;SDS011;6027;48.576;9.180;2023-03-30T17:21:30;3.45;;;1.50;;
11935;SDS011;6027;48.576;9.180;2023-03-30T17:23:56;4.20;;;1.88;;
11935;SDS011;6027;48.576;9.180;2023-03-30T17:26:22;1.48;;;1.27;;
11935;SDS011;6027;48.576;9.180;2023-03-30T17:28:48;3.63;;;1.67;;
11935;SDS011;6027;48.576;9.180;2023-03-30T17:31:17;2.92;;;1.60;;
11935;SDS011;6027;48.576;9.180;2023-03-30T17:33:47;2.60;;;1.40;;
11935;SDS011;6027;48.576;9.180;2023-03-30T17:36:15;5.00;;;2.08;;
11935;SDS011;6027;48.576;9.180;2023-03-30T17:38:41;2.33;;;1.40;;
11935;SDS011;6027;48.576;9.180;2023-03-30T17:41:08;2.25;;;1.30;;
11935;SDS011;6027;48.576;9.180;2023-03-30T17:43:36;2.20;;;1.20;;
11935;SDS011;6027;48.576;9.180;2023-03-30T17:46:02;2.75;;;1.17;;
11935;SDS011;6027;48.576;9.180;2023-03-30T17:48:28;2.70;;;1.85;;
11935;SDS011;6027;48.576;9.180;2023-03-30T17:50:54;5.18;;;2.20;;
11935;SDS011;6027;48.576;9.180;2023-03-30T17:53:19;3.90;;;1.88;;
11935;SDS011;6027;48.576;9.180;2023-03-30T17:55:54;3.10;;;1.33;;
11935;SDS011;6027;48.576;9.180;2023-03-30T17:58:21;3.08;;;1.52;;
11935;SDS011;6027;48.576;9.180;2023-03-30T18:00:48;4.05;;;1.73;;
11935;SDS011;6027;48.576;9.180;2023-03-30T18:03:16;4.32;;;2.20;;
11935;SDS011;6027;48.576;9.180;2023-03-30T18:05:43;3.13;;;1.80;;
11935;SDS011;6027;48.576;9.180;2023-03-30T18:08:14;3.22;;;1.80;;
11935;SDS011;6027;48.576;9.180;2023-03-30T18:10:42;2.90;;;1.92;;
11935;SDS011;6027;48.576;9.180;2023-03-30T18:13:12;4.00;;;2.00;;
11935;SDS011;6027;48.576;9.180;2023-03-30T18:15:38;2.40;;;1.45;;
11935;SDS011;6027;48.576;9.180;2023-03-30T18:18:04;4.60;;;1.77;;
11935;SDS011;6027;48.576;9.180;2023-03-30T18:20:37;2.97;;;1.60;;